createdAt,value
2022-12-29T00:00:29.481Z,43.60
2022-12-29T00:03:17.784Z,40.70
2022-12-29T00:05:46.271Z,40.60
2022-12-29T00:08:14.393Z,42.00
2022-12-29T00:10:42.585Z,40.90
2022-12-29T00:13:29.375Z,38.70
2022-12-29T00:15:57.627Z,40.70
2022-12-29T00:18:28.455Z,36.20
2022-12-29T00:21:15.235Z,42.20
2022-12-29T00:24:01.882Z,39.40
2022-12-29T00:26:48.909Z,40.50
2022-12-29T00:29:35.737Z,40.30
2022-12-29T00:32:24.142Z,38.50
2022-12-29T00:35:10.619Z,39.10
2022-12-29T00:38:01.384Z,37.10
2022-12-29T00:40:47.983Z,35.00
2022-12-29T00:43:34.729Z,39.30
2022-12-29T00:46:03.857Z,35.20
2022-12-29T00:48:50.579Z,37.60
2022-12-29T00:51:18.796Z,36.70
2022-12-29T00:53:46.910Z,36.10
2022-12-29T00:56:15.129Z,34.70
2022-12-29T00:58:43.312Z,37.90
2022-12-29T01:01:11.995Z,42.30
2022-12-29T01:03:40.530Z,35.60
2022-12-29T01:06:11.967Z,40.10
2022-12-29T01:08:40.297Z,35.80
2022-12-29T01:11:14.246Z,34.40
2022-12-29T01:13:43.618Z,31.10
2022-12-29T01:16:13.212Z,36.60
2022-12-29T01:18:43.343Z,36.30
2022-12-29T01:21:11.531Z,35.60
2022-12-29T01:23:39.574Z,37.70
2022-12-29T01:26:16.740Z,33.70
2022-12-29T01:28:45.908Z,28.50
2022-12-29T01:31:16.110Z,32.40
2022-12-29T01:33:45.154Z,27.70
2022-12-29T01:36:17.083Z,31.30
2022-12-29T01:38:45.956Z,32.00
2022-12-29T01:41:16.819Z,29.80
2022-12-29T01:43:54.942Z,33.00
2022-12-29T01:46:41.153Z,28.40
2022-12-29T01:49:09.590Z,29.80
2022-12-29T01:51:53.088Z,27.90
2022-12-29T01:54:40.047Z,29.00
2022-12-29T01:57:15.676Z,26.20
2022-12-29T02:00:13.446Z,25.00
2022-12-29T02:02:51.929Z,24.80
2022-12-29T02:05:53.287Z,27.60
2022-12-29T02:08:25.971Z,28.90
2022-12-29T02:10:55.021Z,29.40
2022-12-29T02:13:29.243Z,28.50
2022-12-29T02:16:13.303Z,29.50
2022-12-29T02:18:52.446Z,28.30
2022-12-29T02:21:20.529Z,31.40
2022-12-29T02:24:14.390Z,32.20
2022-12-29T02:27:17.553Z,24.50
2022-12-29T02:30:09.729Z,25.60
2022-12-29T02:32:53.126Z,27.10
2022-12-29T02:35:33.743Z,29.80
2022-12-29T02:38:08.166Z,27.30
2022-12-29T02:41:20.297Z,26.10
2022-12-29T02:44:13.998Z,23.70
2022-12-29T02:46:53.852Z,24.30
2022-12-29T02:49:39.929Z,26.20
2022-12-29T02:52:17.817Z,29.90
2022-12-29T02:54:46.019Z,29.20
2022-12-29T02:57:23.630Z,25.80
2022-12-29T02:59:59.378Z,27.20
2022-12-29T03:03:05.081Z,23.40
2022-12-29T03:05:42.291Z,23.70
2022-12-29T03:09:03.913Z,25.70
2022-12-29T03:12:05.191Z,23.20
2022-12-29T03:14:56.994Z,24.40
2022-12-29T03:17:42.496Z,24.50
2022-12-29T03:20:17.506Z,28.60
2022-12-29T03:22:52.868Z,25.10
2022-12-29T03:25:39.544Z,26.30
2022-12-29T03:28:42.350Z,24.00
2022-12-29T03:31:12.662Z,25.10
2022-12-29T03:33:43.561Z,24.40
2022-12-29T03:36:21.302Z,27.00
2022-12-29T03:39:01.241Z,26.80
2022-12-29T03:41:34.270Z,26.80
2022-12-29T03:44:06.543Z,22.70
2022-12-29T03:46:35.869Z,26.10
2022-12-29T03:49:04.325Z,26.90
2022-12-29T03:51:32.517Z,24.90
2022-12-29T03:54:00.925Z,20.60
2022-12-29T03:56:29.413Z,20.50
2022-12-29T03:58:57.575Z,23.30
2022-12-29T04:01:32.291Z,23.10
2022-12-29T04:04:00.786Z,15.40
2022-12-29T04:06:29.112Z,21.80
2022-12-29T04:09:03.240Z,27.20
2022-12-29T04:11:34.757Z,27.30
2022-12-29T04:14:05.118Z,25.10
2022-12-29T04:16:36.886Z,27.80
2022-12-29T04:19:08.636Z,26.10
2022-12-29T04:21:38.250Z,27.50
2022-12-29T04:24:07.935Z,31.10
2022-12-29T04:26:41.455Z,26.10
2022-12-29T04:29:28.026Z,27.20
2022-12-29T04:32:37.520Z,26.20
2022-12-29T04:35:06.762Z,25.50
2022-12-29T04:37:35.196Z,26.60
2022-12-29T04:40:03.646Z,25.50
2022-12-29T04:42:32.058Z,26.30
2022-12-29T04:45:01.168Z,28.10
2022-12-29T04:47:39.623Z,26.30
2022-12-29T04:50:26.581Z,26.20
2022-12-29T04:53:02.234Z,22.90
2022-12-29T04:55:30.847Z,27.90
2022-12-29T04:57:59.570Z,23.40
2022-12-29T05:00:30.074Z,28.10
2022-12-29T05:03:00.525Z,24.40
2022-12-29T05:05:30.442Z,25.90
2022-12-29T05:07:59.468Z,24.30
2022-12-29T05:10:29.411Z,23.50
2022-12-29T05:13:02.013Z,22.50
2022-12-29T05:15:30.706Z,24.60
2022-12-29T05:17:59.699Z,28.10
2022-12-29T05:20:30.095Z,24.90
2022-12-29T05:22:59.316Z,25.90
2022-12-29T05:25:27.586Z,24.40
2022-12-29T05:28:05.723Z,33.90
2022-12-29T05:30:51.727Z,28.30
2022-12-29T05:33:21.591Z,28.40
2022-12-29T05:35:51.657Z,27.30
2022-12-29T05:38:21.163Z,26.80
2022-12-29T05:40:49.418Z,24.90
2022-12-29T05:43:58.749Z,24.20
2022-12-29T05:46:44.747Z,24.60
2022-12-29T05:49:34.213Z,28.90
2022-12-29T05:52:29.147Z,26.50
2022-12-29T05:54:58.629Z,27.40
2022-12-29T05:57:28.098Z,30.60
2022-12-29T06:00:07.384Z,26.70
2022-12-29T06:02:42.890Z,22.80
2022-12-29T06:05:11.336Z,23.60
2022-12-29T06:07:40.804Z,26.10
2022-12-29T06:10:09.764Z,25.20
2022-12-29T06:12:45.249Z,27.00
2022-12-29T06:15:14.533Z,26.50
2022-12-29T06:17:43.930Z,26.50
2022-12-29T06:20:12.317Z,28.10
2022-12-29T06:22:40.788Z,28.50
2022-12-29T06:25:09.914Z,29.90
2022-12-29T06:27:38.309Z,25.50
2022-12-29T06:30:08.590Z,29.30
2022-12-29T06:32:37.155Z,31.40
2022-12-29T06:35:08.005Z,27.40
2022-12-29T06:37:41.326Z,28.90
2022-12-29T06:40:11.106Z,27.10
2022-12-29T06:42:58.160Z,30.60
2022-12-29T06:45:44.982Z,29.60
2022-12-29T06:48:14.320Z,31.40
2022-12-29T06:50:42.550Z,30.30
2022-12-29T06:53:10.756Z,29.40
2022-12-29T06:55:38.993Z,36.20
2022-12-29T06:58:07.437Z,50.40
2022-12-29T07:00:35.754Z,43.80
2022-12-29T07:03:04.220Z,55.20
2022-12-29T07:05:33.764Z,42.20
2022-12-29T07:08:02.262Z,36.20
2022-12-29T07:10:30.716Z,35.60
2022-12-29T07:12:58.957Z,78.60
2022-12-29T07:15:27.329Z,41.40
2022-12-29T07:17:55.594Z,36.00
2022-12-29T07:20:27.002Z,37.80
2022-12-29T07:22:55.558Z,35.30
2022-12-29T07:25:24.271Z,31.70
2022-12-29T07:27:53.024Z,36.10
2022-12-29T07:30:21.240Z,36.90
2022-12-29T07:32:49.559Z,27.80
2022-12-29T07:35:18.291Z,30.70
2022-12-29T07:37:49.442Z,27.00
2022-12-29T07:40:24.601Z,22.70
2022-12-29T07:42:54.417Z,28.00
2022-12-29T07:45:38.571Z,22.60
2022-12-29T07:48:12.879Z,27.40
2022-12-29T07:50:41.278Z,33.10
2022-12-29T07:53:09.612Z,30.40
2022-12-29T07:55:37.823Z,28.40
2022-12-29T07:58:07.035Z,24.40
2022-12-29T08:00:35.936Z,20.60
2022-12-29T08:03:06.352Z,26.10
2022-12-29T08:05:35.420Z,22.00
2022-12-29T08:08:03.720Z,31.70
2022-12-29T08:10:31.878Z,31.20
2022-12-29T08:13:00.063Z,31.10
2022-12-29T08:15:32.351Z,25.70
2022-12-29T08:18:01.038Z,26.50
2022-12-29T08:20:29.214Z,22.10
2022-12-29T08:22:57.675Z,21.80
2022-12-29T08:25:25.935Z,27.90
2022-12-29T08:27:54.136Z,24.30
2022-12-29T08:30:22.529Z,27.00
2022-12-29T08:32:50.885Z,28.30
2022-12-29T08:35:19.654Z,26.10
2022-12-29T08:37:47.829Z,23.30
2022-12-29T08:40:16.284Z,24.70
2022-12-29T08:42:44.668Z,29.20
2022-12-29T08:45:12.808Z,18.10
2022-12-29T08:47:41.095Z,31.30
2022-12-29T08:50:09.419Z,30.00
2022-12-29T08:52:38.655Z,33.50
2022-12-29T08:55:07.406Z,32.70
2022-12-29T08:57:35.780Z,35.40
2022-12-29T09:00:16.926Z,29.50
2022-12-29T09:02:45.672Z,31.00
2022-12-29T09:05:14.261Z,32.60
2022-12-29T09:07:42.666Z,35.20
2022-12-29T09:10:10.988Z,33.10
2022-12-29T09:12:39.421Z,25.70
2022-12-29T09:15:09.095Z,28.00
2022-12-29T09:17:48.639Z,26.50
2022-12-29T09:20:20.372Z,31.00
2022-12-29T09:22:49.359Z,28.70
2022-12-29T09:25:17.856Z,21.90
2022-12-29T09:27:46.011Z,24.20
2022-12-29T09:30:16.532Z,33.20
2022-12-29T09:32:45.937Z,31.40
2022-12-29T09:35:18.267Z,24.60
2022-12-29T09:37:46.521Z,25.20
2022-12-29T09:40:31.976Z,28.50
2022-12-29T09:43:45.512Z,27.40
2022-12-29T09:46:25.535Z,28.80
2022-12-29T09:49:32.755Z,27.10
2022-12-29T09:52:07.545Z,31.90
2022-12-29T09:54:41.492Z,25.30
2022-12-29T09:57:31.707Z,28.20
2022-12-29T10:00:13.146Z,26.90
2022-12-29T10:02:47.471Z,31.50
2022-12-29T10:05:24.839Z,29.50
2022-12-29T10:08:20.797Z,25.10
2022-12-29T10:10:58.506Z,24.80
2022-12-29T10:13:41.938Z,27.90
2022-12-29T10:16:38.864Z,24.70
2022-12-29T10:19:33.587Z,25.00
2022-12-29T10:22:13.893Z,24.20
2022-12-29T10:24:46.220Z,25.60
2022-12-29T10:29:52.294Z,15.10
2022-12-29T10:32:39.084Z,27.60
2022-12-29T10:35:32.100Z,23.40
2022-12-29T10:38:24.898Z,25.60
2022-12-29T10:43:48.939Z,16.20
2022-12-29T10:46:28.675Z,17.60
2022-12-29T10:48:57.459Z,18.50
2022-12-29T10:51:47.456Z,19.00
2022-12-29T10:54:34.046Z,19.70
2022-12-29T10:57:13.619Z,18.30
2022-12-29T10:59:43.154Z,18.30
2022-12-29T11:02:11.492Z,19.80
2022-12-29T11:05:05.178Z,17.00
2022-12-29T11:07:33.346Z,17.80
2022-12-29T11:10:35.279Z,17.90
2022-12-29T11:13:25.675Z,19.00
2022-12-29T11:15:53.860Z,19.00
2022-12-29T11:18:48.291Z,16.90
2022-12-29T11:21:40.742Z,18.10
2022-12-29T11:24:30.319Z,18.50
2022-12-29T11:27:16.954Z,18.00
2022-12-29T11:29:45.957Z,18.30
2022-12-29T11:32:28.534Z,16.90
2022-12-29T11:34:59.887Z,15.50
2022-12-29T11:37:40.743Z,20.80
2022-12-29T11:40:21.616Z,17.40
2022-12-29T11:42:56.778Z,16.80
2022-12-29T11:45:35.269Z,17.10
2022-12-29T11:48:19.024Z,20.10
2022-12-29T11:50:55.782Z,19.60
2022-12-29T11:54:00.981Z,18.10
2022-12-29T11:56:42.259Z,21.10
2022-12-29T11:59:30.951Z,19.90
2022-12-29T12:02:04.670Z,20.30
2022-12-29T12:04:38.133Z,20.60
2022-12-29T12:07:13.667Z,20.70
2022-12-29T12:09:58.051Z,24.80
2022-12-29T12:12:57.083Z,21.50
2022-12-29T12:15:45.832Z,22.30
2022-12-29T12:18:53.077Z,20.10
2022-12-29T12:21:45.687Z,20.80
2022-12-29T12:24:50.365Z,19.40
2022-12-29T12:27:35.073Z,20.20
2022-12-29T12:30:20.332Z,16.30
2022-12-29T12:33:16.175Z,12.80
2022-12-29T12:36:28.399Z,16.90
2022-12-29T12:39:03.039Z,14.50
2022-12-29T12:41:43.300Z,16.30
2022-12-29T12:44:32.159Z,16.40
2022-12-29T12:47:18.266Z,18.10
2022-12-29T12:50:16.451Z,14.30
2022-12-29T12:52:55.354Z,17.70
2022-12-29T12:55:29.793Z,16.00
2022-12-29T12:58:44.935Z,16.40
2022-12-29T13:01:30.729Z,15.60
2022-12-29T13:04:48.711Z,16.00
2022-12-29T13:07:39.363Z,15.70
2022-12-29T13:11:01.717Z,16.60
2022-12-29T13:14:11.686Z,14.70
2022-12-29T13:17:25.311Z,16.00
2022-12-29T13:20:46.982Z,17.50
2022-12-29T13:23:30.411Z,16.40
2022-12-29T13:26:28.881Z,19.50
2022-12-29T13:29:20.186Z,19.80
2022-12-29T13:32:28.376Z,18.10
2022-12-29T13:35:35.050Z,17.90
2022-12-29T13:38:21.818Z,19.40
2022-12-29T13:40:57.854Z,19.30
2022-12-29T13:43:28.471Z,20.10
2022-12-29T13:46:28.449Z,18.30
2022-12-29T13:49:05.902Z,18.40
2022-12-29T13:51:35.813Z,22.20
2022-12-29T13:54:12.957Z,18.60
2022-12-29T13:57:04.112Z,18.90
2022-12-29T13:59:56.855Z,17.70
2022-12-29T14:02:46.761Z,21.70
2022-12-29T14:05:21.257Z,20.00
2022-12-29T14:07:59.447Z,22.90
2022-12-29T14:10:30.995Z,16.80
2022-12-29T14:13:18.367Z,22.30
2022-12-29T14:15:53.954Z,19.10
2022-12-29T14:18:32.751Z,16.90
2022-12-29T14:21:06.467Z,20.00
2022-12-29T14:23:41.889Z,20.10
2022-12-29T14:26:31.204Z,17.10
2022-12-29T14:29:40.303Z,21.10
2022-12-29T14:32:26.704Z,19.10
2022-12-29T14:34:59.871Z,19.20
2022-12-29T14:37:37.344Z,20.50
2022-12-29T14:40:23.391Z,24.50
2022-12-29T14:42:55.572Z,21.20
2022-12-29T14:45:31.597Z,17.70
2022-12-29T14:48:01.135Z,19.10
2022-12-29T14:50:44.400Z,21.10
2022-12-29T14:54:23.903Z,20.90
2022-12-29T14:56:52.477Z,22.10
2022-12-29T14:59:22.074Z,23.10
2022-12-29T15:01:55.901Z,22.40
2022-12-29T15:04:34.706Z,23.80
2022-12-29T15:07:10.040Z,27.30
2022-12-29T15:09:50.258Z,21.90
2022-12-29T15:12:52.726Z,23.50
2022-12-29T15:15:28.263Z,27.20
2022-12-29T15:17:57.060Z,27.40
2022-12-29T15:20:33.056Z,26.10
2022-12-29T15:23:17.032Z,26.20
2022-12-29T15:26:00.178Z,23.40
2022-12-29T15:28:38.535Z,32.50
2022-12-29T15:31:28.019Z,27.30
2022-12-29T15:34:13.227Z,25.80
2022-12-29T15:36:42.638Z,28.80
2022-12-29T15:39:32.371Z,31.80
2022-12-29T15:42:55.782Z,40.50
2022-12-29T15:45:34.602Z,31.90
2022-12-29T15:48:05.756Z,31.20
2022-12-29T15:50:38.098Z,34.00
2022-12-29T15:53:13.339Z,37.40
2022-12-29T15:55:43.564Z,31.80
2022-12-29T15:58:28.146Z,36.40
2022-12-29T16:01:02.338Z,40.90
2022-12-29T16:03:37.458Z,32.90
2022-12-29T16:06:29.779Z,35.50
2022-12-29T16:09:05.156Z,33.90
2022-12-29T16:11:45.583Z,33.10
2022-12-29T16:14:33.317Z,30.40
2022-12-29T16:17:05.352Z,37.30
2022-12-29T16:19:37.665Z,33.30
2022-12-29T16:24:41.646Z,31.60
2022-12-29T16:27:27.655Z,42.30
2022-12-29T16:29:56.613Z,49.20
2022-12-29T16:32:33.533Z,54.80
2022-12-29T16:35:15.060Z,41.90
2022-12-29T16:37:43.147Z,33.90
2022-12-29T16:40:32.137Z,32.90
2022-12-29T16:43:04.190Z,35.50
2022-12-29T16:46:17.362Z,47.40
2022-12-29T16:48:57.491Z,39.70
2022-12-29T16:51:38.330Z,31.90
2022-12-29T16:54:06.726Z,30.90
2022-12-29T16:56:37.496Z,38.70
2022-12-29T16:59:15.264Z,40.40
2022-12-29T17:01:43.650Z,40.50
2022-12-29T17:04:14.213Z,37.00
2022-12-29T17:06:42.510Z,38.00
2022-12-29T17:09:25.988Z,36.50
2022-12-29T17:12:08.687Z,39.30
2022-12-29T17:14:54.406Z,46.70
2022-12-29T17:17:33.791Z,45.10
2022-12-29T17:20:22.264Z,51.30
2022-12-29T17:22:54.148Z,57.70
2022-12-29T17:25:42.984Z,51.90
2022-12-29T17:28:22.854Z,48.70
2022-12-29T17:30:53.763Z,51.30
2022-12-29T17:33:22.089Z,43.70
2022-12-29T17:35:55.127Z,43.90
2022-12-29T17:38:30.511Z,39.40
2022-12-29T17:40:59.584Z,44.10
2022-12-29T17:43:34.593Z,46.40
2022-12-29T17:46:08.065Z,45.60
2022-12-29T17:48:36.378Z,58.50
2022-12-29T17:51:04.718Z,45.00
2022-12-29T17:53:33.043Z,45.80
2022-12-29T17:56:01.240Z,54.80
2022-12-29T17:58:33.840Z,56.00
2022-12-29T18:01:04.727Z,47.30
2022-12-29T18:03:39.493Z,58.00
2022-12-29T18:06:11.649Z,46.60
2022-12-29T18:08:42.150Z,49.80
2022-12-29T18:11:25.556Z,59.40
2022-12-29T18:13:54.519Z,50.40
2022-12-29T18:16:23.698Z,56.30
2022-12-29T18:18:52.075Z,44.10
2022-12-29T18:21:23.524Z,60.30
2022-12-29T18:23:52.304Z,67.40
2022-12-29T18:26:31.538Z,58.80
2022-12-29T18:28:59.852Z,51.00
2022-12-29T18:31:31.752Z,47.40
2022-12-29T18:34:03.439Z,54.50
2022-12-29T18:36:31.570Z,47.50
2022-12-29T18:38:59.742Z,45.60
2022-12-29T18:41:30.430Z,47.80
2022-12-29T18:44:00.185Z,47.10
2022-12-29T18:46:29.008Z,43.00
2022-12-29T18:48:57.393Z,41.70
2022-12-29T18:51:26.983Z,49.50
2022-12-29T18:53:55.219Z,46.80
2022-12-29T18:56:24.637Z,44.70
2022-12-29T18:58:53.680Z,45.40
2022-12-29T19:01:28.127Z,42.20
2022-12-29T19:03:56.964Z,35.90
2022-12-29T19:06:25.880Z,40.90
2022-12-29T19:08:54.339Z,36.30
2022-12-29T19:11:22.578Z,31.20
2022-12-29T19:13:50.792Z,39.70
2022-12-29T19:16:22.016Z,42.50
2022-12-29T19:19:07.664Z,44.40
2022-12-29T19:21:37.889Z,40.50
2022-12-29T19:24:06.727Z,43.00
2022-12-29T19:26:38.673Z,38.90
2022-12-29T19:29:13.769Z,36.00
2022-12-29T19:31:42.336Z,39.40
2022-12-29T19:34:16.984Z,37.70
2022-12-29T19:36:46.095Z,36.40
2022-12-29T19:39:14.780Z,34.60
2022-12-29T19:41:43.250Z,37.30
2022-12-29T19:44:11.506Z,42.20
2022-12-29T19:46:39.918Z,39.00
2022-12-29T19:49:08.040Z,38.40
2022-12-29T19:51:36.535Z,40.40
2022-12-29T19:54:05.707Z,41.70
2022-12-29T19:56:34.146Z,43.30
2022-12-29T19:59:02.445Z,44.40
2022-12-29T20:01:30.860Z,37.20
2022-12-29T20:03:59.519Z,41.60
2022-12-29T20:06:27.656Z,44.00
2022-12-29T20:08:56.520Z,42.90
2022-12-29T20:11:24.817Z,42.70
2022-12-29T20:13:53.209Z,36.90
2022-12-29T20:16:21.956Z,38.30
2022-12-29T20:18:50.772Z,32.90
2022-12-29T20:21:24.698Z,41.80
2022-12-29T20:23:54.287Z,43.50
2022-12-29T20:26:30.333Z,46.30
2022-12-29T20:29:00.386Z,43.70
2022-12-29T20:31:33.406Z,49.50
2022-12-29T20:34:02.889Z,43.40
2022-12-29T20:36:34.764Z,49.70
2022-12-29T20:39:07.863Z,61.50
2022-12-29T20:41:36.735Z,57.40
2022-12-29T20:44:05.779Z,43.90
2022-12-29T20:46:43.060Z,55.80
2022-12-29T20:49:12.410Z,59.40
2022-12-29T20:54:37.072Z,62.70
2022-12-29T20:57:08.318Z,54.30
2022-12-29T20:59:37.282Z,49.50
2022-12-29T21:02:05.974Z,47.00
2022-12-29T21:04:57.691Z,48.00
2022-12-29T21:07:22.965Z,48.20
2022-12-29T21:09:51.447Z,50.40
2022-12-29T21:12:19.624Z,43.30
2022-12-29T21:14:47.833Z,40.20
2022-12-29T21:17:15.897Z,44.60
2022-12-29T21:19:45.902Z,49.50
2022-12-29T21:22:14.024Z,43.20
2022-12-29T21:24:42.292Z,48.60
2022-12-29T21:27:12.199Z,38.40
2022-12-29T21:29:40.337Z,41.80
2022-12-29T21:32:08.540Z,42.60
2022-12-29T21:34:36.827Z,39.40
2022-12-29T21:37:05.245Z,40.80
2022-12-29T21:39:33.405Z,31.30
2022-12-29T21:42:02.675Z,47.20
2022-12-29T21:44:49.467Z,51.50
2022-12-29T21:47:17.896Z,47.60
2022-12-29T21:49:46.104Z,49.60
2022-12-29T21:52:14.465Z,42.90
2022-12-29T21:55:01.188Z,44.60
2022-12-29T21:57:48.051Z,38.10
2022-12-29T22:00:35.596Z,36.70
2022-12-29T22:03:23.711Z,34.00
2022-12-29T22:06:11.204Z,37.10
2022-12-29T22:08:58.971Z,39.20
2022-12-29T22:11:46.289Z,31.10
2022-12-29T22:14:14.661Z,33.30
2022-12-29T22:16:43.187Z,33.30
2022-12-29T22:19:11.587Z,28.70
2022-12-29T22:21:40.002Z,33.10
2022-12-29T22:24:08.915Z,35.70
2022-12-29T22:26:37.231Z,28.60
2022-12-29T22:29:05.642Z,30.70
2022-12-29T22:31:34.152Z,30.00
2022-12-29T22:34:05.652Z,36.20
2022-12-29T22:36:34.061Z,32.70
2022-12-29T22:39:02.642Z,33.00
2022-12-29T22:41:30.839Z,31.60
2022-12-29T22:43:59.182Z,32.60
2022-12-29T22:46:27.845Z,34.80
2022-12-29T22:48:57.865Z,35.10
2022-12-29T22:51:26.432Z,32.30
2022-12-29T22:53:54.653Z,36.60
2022-12-29T22:56:22.791Z,30.20
2022-12-29T22:58:51.332Z,29.40
2022-12-29T23:01:22.697Z,32.40
2022-12-29T23:03:51.107Z,32.20
2022-12-29T23:06:19.366Z,31.60
2022-12-29T23:08:48.119Z,30.10
2022-12-29T23:11:16.998Z,30.00
2022-12-29T23:13:45.331Z,33.70
2022-12-29T23:16:15.596Z,29.70
2022-12-29T23:18:46.030Z,29.40
2022-12-29T23:21:16.192Z,29.50
2022-12-29T23:23:54.068Z,27.50
2022-12-29T23:26:24.315Z,23.50
2022-12-29T23:28:59.726Z,26.20
2022-12-29T23:31:30.187Z,27.30
2022-12-29T23:34:03.405Z,31.10
2022-12-29T23:36:32.486Z,28.60
2022-12-29T23:39:00.942Z,26.00
2022-12-29T23:41:29.267Z,32.10
2022-12-29T23:43:57.866Z,28.10
2022-12-29T23:46:29.726Z,25.70
2022-12-29T23:48:57.981Z,24.00
2022-12-29T23:51:26.305Z,29.30
2022-12-29T23:53:54.502Z,28.10
2022-12-29T23:56:23.626Z,29.80
2022-12-29T23:58:52.529Z,30.80
